createdAt,value
2018-03-19T00:00:19.225Z,7.06
2018-03-19T00:02:47.624Z,6.88
2018-03-19T00:05:16.091Z,6.69
2018-03-19T00:07:44.472Z,6.66
2018-03-19T00:10:12.856Z,6.75
2018-03-19T00:12:41.398Z,6.55
2018-03-19T00:15:09.771Z,6.55
2018-03-19T00:17:38.164Z,6.70
2018-03-19T00:20:06.541Z,6.90
2018-03-19T00:22:34.975Z,7.07
2018-03-19T00:25:03.357Z,7.16
2018-03-19T00:27:31.780Z,7.08
2018-03-19T00:30:00.138Z,7.12
2018-03-19T00:32:28.506Z,6.83
2018-03-19T00:34:56.913Z,6.70
2018-03-19T00:37:25.356Z,6.99
2018-03-19T00:39:53.780Z,6.84
2018-03-19T00:42:22.189Z,6.32
2018-03-19T00:44:50.560Z,6.38
2018-03-19T00:47:19.013Z,6.55
2018-03-19T00:49:47.423Z,6.59
2018-03-19T00:52:15.814Z,6.18
2018-03-19T00:54:44.248Z,6.49
2018-03-19T00:57:12.607Z,6.63
2018-03-19T00:59:40.997Z,6.46
2018-03-19T01:02:09.435Z,6.43
2018-03-19T01:04:37.813Z,6.58
2018-03-19T01:07:06.225Z,6.54
2018-03-19T01:09:34.660Z,6.46
2018-03-19T01:12:03.081Z,6.64
2018-03-19T01:14:31.727Z,6.69
2018-03-19T01:17:00.153Z,6.80
2018-03-19T01:19:28.547Z,6.51
2018-03-19T01:21:56.991Z,6.33
2018-03-19T01:24:25.368Z,6.58
2018-03-19T01:26:53.777Z,6.66
2018-03-19T01:29:22.144Z,6.66
2018-03-19T01:31:50.556Z,6.40
2018-03-19T01:34:19.299Z,6.58
2018-03-19T01:36:47.687Z,6.58
2018-03-19T01:39:16.151Z,5.90
2018-03-19T01:41:44.600Z,5.94
2018-03-19T01:44:12.984Z,6.05
2018-03-19T01:46:41.417Z,6.26
2018-03-19T01:49:09.800Z,6.22
2018-03-19T01:51:38.174Z,6.06
2018-03-19T01:54:06.596Z,6.38
2018-03-19T01:56:34.968Z,6.57
2018-03-19T01:59:03.390Z,6.64
2018-03-19T02:01:31.832Z,6.75
2018-03-19T02:04:00.252Z,6.84
2018-03-19T02:06:28.609Z,6.79
2018-03-19T02:08:56.992Z,6.99
2018-03-19T02:11:25.408Z,6.99
2018-03-19T02:13:53.809Z,6.81
2018-03-19T02:16:22.241Z,6.92
2018-03-19T02:18:50.603Z,6.65
2018-03-19T02:21:19.047Z,6.67
2018-03-19T02:23:47.892Z,6.83
2018-03-19T02:26:16.290Z,6.84
2018-03-19T02:28:44.688Z,6.76
2018-03-19T02:31:13.335Z,6.80
2018-03-19T02:33:41.734Z,6.69
2018-03-19T02:36:10.106Z,6.82
2018-03-19T02:38:38.521Z,6.84
2018-03-19T02:41:06.909Z,6.71
2018-03-19T02:43:35.349Z,6.79
2018-03-19T02:46:04.342Z,6.90
2018-03-19T02:48:32.730Z,6.97
2018-03-19T02:51:01.203Z,7.00
2018-03-19T02:53:29.979Z,7.07
2018-03-19T02:55:58.339Z,6.92
2018-03-19T02:58:26.723Z,6.88
2018-03-19T03:00:55.220Z,6.97
2018-03-19T03:03:23.624Z,6.75
2018-03-19T03:05:52.050Z,6.83
2018-03-19T03:08:21.260Z,6.96
2018-03-19T03:10:49.652Z,7.00
2018-03-19T03:13:18.033Z,7.01
2018-03-19T03:15:46.511Z,7.06
2018-03-19T03:18:14.886Z,6.84
2018-03-19T03:20:43.274Z,7.17
2018-03-19T03:23:11.709Z,7.13
2018-03-19T03:25:40.105Z,7.28
2018-03-19T03:28:08.503Z,7.19
2018-03-19T03:30:36.916Z,7.08
2018-03-19T03:33:05.293Z,7.18
2018-03-19T03:35:33.669Z,7.04
2018-03-19T03:38:02.128Z,6.96
2018-03-19T03:40:30.492Z,6.69
2018-03-19T03:42:58.917Z,6.86
2018-03-19T03:45:27.287Z,7.02
2018-03-19T03:47:55.692Z,7.17
2018-03-19T03:50:24.167Z,7.09
2018-03-19T03:52:52.527Z,7.12
2018-03-19T03:55:20.937Z,7.10
2018-03-19T03:57:49.376Z,7.12
2018-03-19T04:00:17.783Z,7.22
2018-03-19T04:02:46.165Z,7.08
2018-03-19T04:05:14.535Z,7.25
2018-03-19T04:07:42.943Z,7.24
2018-03-19T04:10:11.361Z,7.17
2018-03-19T04:12:39.736Z,7.18
2018-03-19T04:15:08.176Z,7.17
2018-03-19T04:17:36.571Z,6.74
2018-03-19T04:20:05.024Z,7.06
2018-03-19T04:22:33.419Z,6.76
2018-03-19T04:25:01.867Z,6.93
2018-03-19T04:27:30.257Z,7.10
2018-03-19T04:29:58.660Z,7.09
2018-03-19T04:32:27.087Z,7.28
2018-03-19T04:34:55.528Z,7.28
2018-03-19T04:37:23.915Z,7.34
2018-03-19T04:39:52.340Z,7.37
2018-03-19T04:42:20.711Z,7.49
2018-03-19T04:44:49.186Z,7.41
2018-03-19T04:47:17.569Z,7.44
2018-03-19T04:49:45.988Z,7.47
2018-03-19T04:52:14.385Z,7.32
2018-03-19T04:54:42.817Z,7.37
2018-03-19T04:57:11.184Z,7.21
2018-03-19T04:59:39.621Z,7.11
2018-03-19T05:02:08.005Z,7.13
2018-03-19T05:04:36.397Z,7.34
2018-03-19T05:07:04.789Z,7.40
2018-03-19T05:09:33.232Z,7.31
2018-03-19T05:12:01.607Z,7.00
2018-03-19T05:14:30.029Z,7.22
2018-03-19T05:16:58.570Z,7.28
2018-03-19T05:19:27.075Z,7.28
2018-03-19T05:21:55.508Z,7.36
2018-03-19T05:24:23.975Z,7.47
2018-03-19T05:26:52.452Z,7.37
2018-03-19T05:29:20.898Z,7.40
2018-03-19T05:31:49.308Z,7.14
2018-03-19T05:34:17.848Z,7.31
2018-03-19T05:36:46.244Z,7.31
2018-03-19T05:39:14.668Z,7.44
2018-03-19T05:41:43.157Z,7.24
2018-03-19T05:44:11.520Z,7.38
2018-03-19T05:46:39.930Z,7.60
2018-03-19T05:49:08.345Z,7.78
2018-03-19T05:51:36.694Z,7.83
2018-03-19T05:54:05.079Z,7.76
2018-03-19T05:56:33.529Z,7.80
2018-03-19T05:59:01.929Z,7.73
2018-03-19T06:01:30.343Z,7.64
2018-03-19T06:03:58.723Z,7.91
2018-03-19T06:06:27.137Z,8.03
2018-03-19T06:08:55.536Z,7.95
2018-03-19T06:11:23.985Z,8.12
2018-03-19T06:13:52.352Z,8.05
2018-03-19T06:16:20.745Z,8.06
2018-03-19T06:18:49.109Z,8.13
2018-03-19T06:21:17.567Z,8.42
2018-03-19T06:23:45.944Z,8.51
2018-03-19T06:26:14.397Z,8.49
2018-03-19T06:28:42.784Z,8.10
2018-03-19T06:31:11.213Z,7.96
2018-03-19T06:33:39.882Z,7.95
2018-03-19T06:36:08.301Z,7.95
2018-03-19T06:38:36.700Z,7.98
2018-03-19T06:41:05.078Z,7.88
2018-03-19T06:43:33.739Z,7.76
2018-03-19T06:46:02.095Z,7.88
2018-03-19T06:48:30.469Z,7.86
2018-03-19T06:50:59.065Z,8.28
2018-03-19T06:53:27.584Z,8.51
2018-03-19T06:55:55.992Z,8.45
2018-03-19T06:58:24.374Z,8.29
2018-03-19T07:00:52.847Z,8.37
2018-03-19T07:03:21.237Z,8.53
2018-03-19T07:05:49.637Z,8.57
2018-03-19T07:08:18.077Z,8.78
2018-03-19T07:10:46.664Z,8.81
2018-03-19T07:13:15.040Z,8.93
2018-03-19T07:15:43.482Z,8.89
2018-03-19T07:18:11.914Z,9.09
2018-03-19T07:20:40.356Z,8.93
2018-03-19T07:23:08.737Z,8.83
2018-03-19T07:25:37.114Z,8.97
2018-03-19T07:28:05.745Z,9.22
2018-03-19T07:30:34.175Z,9.72
2018-03-19T07:33:02.571Z,9.93
2018-03-19T07:35:30.981Z,10.06
2018-03-19T07:37:59.420Z,9.87
2018-03-19T07:40:27.824Z,9.05
2018-03-19T07:42:56.228Z,9.45
2018-03-19T07:45:24.657Z,9.47
2018-03-19T07:47:53.390Z,9.63
2018-03-19T07:50:21.778Z,9.93
2018-03-19T07:52:50.196Z,9.84
2018-03-19T07:55:18.635Z,9.90
2018-03-19T07:57:47.015Z,10.08
2018-03-19T08:00:15.438Z,10.13
2018-03-19T08:02:43.877Z,10.32
2018-03-19T08:05:12.438Z,10.15
2018-03-19T08:07:40.865Z,10.16
2018-03-19T08:10:09.258Z,10.14
2018-03-19T08:12:37.800Z,10.25
2018-03-19T08:15:06.252Z,10.10
2018-03-19T08:17:34.725Z,10.46
2018-03-19T08:20:03.121Z,10.85
2018-03-19T08:22:31.501Z,10.87
2018-03-19T08:24:59.940Z,11.13
2018-03-19T08:27:28.313Z,11.48
2018-03-19T08:29:56.794Z,11.25
2018-03-19T08:32:25.144Z,10.57
2018-03-19T08:34:53.568Z,10.50
2018-03-19T08:37:22.021Z,9.98
2018-03-19T08:39:50.436Z,9.59
2018-03-19T08:42:18.790Z,9.68
2018-03-19T08:44:47.251Z,9.65
2018-03-19T08:47:15.609Z,9.92
2018-03-19T08:49:43.975Z,10.31
2018-03-19T08:52:12.390Z,10.79
2018-03-19T08:54:40.800Z,10.87
2018-03-19T08:57:09.225Z,10.90
2018-03-19T08:59:37.662Z,11.43
2018-03-19T09:02:06.053Z,11.75
2018-03-19T09:04:34.528Z,11.49
2018-03-19T09:07:03.032Z,11.49
2018-03-19T09:09:31.463Z,11.02
2018-03-19T09:11:59.868Z,10.75
2018-03-19T09:14:28.256Z,10.71
2018-03-19T09:16:56.649Z,10.37
2018-03-19T09:19:25.074Z,10.16
2018-03-19T09:21:53.461Z,10.60
2018-03-19T09:24:22.055Z,10.69
2018-03-19T09:26:50.531Z,10.70
2018-03-19T09:29:18.987Z,11.05
2018-03-19T09:31:47.433Z,10.57
2018-03-19T09:34:15.848Z,10.45
2018-03-19T09:36:44.269Z,10.99
2018-03-19T09:39:12.712Z,10.82
2018-03-19T09:41:41.196Z,10.62
2018-03-19T09:44:09.554Z,11.02
2018-03-19T09:46:37.989Z,11.17
2018-03-19T09:49:06.404Z,10.45
2018-03-19T09:51:34.872Z,10.53
2018-03-19T09:54:03.309Z,10.32
2018-03-19T09:56:31.754Z,10.41
2018-03-19T09:59:00.279Z,10.95
2018-03-19T10:01:28.804Z,11.07
2018-03-19T10:03:57.271Z,11.06
2018-03-19T10:06:25.689Z,11.10
2018-03-19T10:08:54.096Z,10.95
2018-03-19T10:11:22.571Z,10.84
2018-03-19T10:13:50.973Z,10.79
2018-03-19T10:16:19.423Z,11.19
2018-03-19T10:18:47.849Z,11.24
2018-03-19T10:21:16.268Z,11.13
2018-03-19T10:23:44.812Z,10.59
2018-03-19T10:26:13.216Z,10.31
2018-03-19T10:28:41.664Z,10.79
2018-03-19T10:31:10.057Z,11.35
2018-03-19T10:33:38.571Z,11.06
2018-03-19T10:36:06.948Z,11.18
2018-03-19T10:38:35.400Z,11.17
2018-03-19T10:41:03.861Z,11.09
2018-03-19T10:43:32.289Z,10.95
2018-03-19T10:46:00.746Z,11.16
2018-03-19T10:48:29.240Z,10.27
2018-03-19T10:50:57.640Z,10.38
2018-03-19T10:53:26.076Z,10.37
2018-03-19T10:55:54.504Z,10.82
2018-03-19T10:58:23.047Z,11.24
2018-03-19T11:00:51.508Z,10.87
2018-03-19T11:03:25.572Z,11.19
2018-03-19T11:06:09.546Z,11.23
2018-03-19T11:08:48.716Z,10.78
2018-03-19T11:11:17.181Z,10.95
2018-03-19T11:13:45.583Z,10.89
2018-03-19T11:16:14.013Z,10.92
2018-03-19T11:18:42.561Z,10.66
2018-03-19T11:21:10.969Z,10.44
2018-03-19T11:23:39.392Z,9.84
2018-03-19T11:26:07.756Z,9.79
2018-03-19T11:28:36.196Z,10.30
2018-03-19T11:31:04.644Z,10.23
2018-03-19T11:33:33.124Z,10.61
2018-03-19T11:36:01.567Z,10.89
2018-03-19T11:38:29.940Z,10.49
2018-03-19T11:40:58.369Z,9.89
2018-03-19T11:43:26.821Z,9.90
2018-03-19T11:45:55.234Z,9.63
2018-03-19T11:48:23.613Z,9.77
2018-03-19T11:50:52.016Z,9.45
2018-03-19T11:53:20.460Z,9.53
2018-03-19T11:55:48.932Z,9.41
2018-03-19T11:58:17.853Z,9.43
2018-03-19T12:00:46.608Z,9.48
2018-03-19T12:03:15.008Z,9.38
2018-03-19T12:05:43.421Z,9.21
2018-03-19T12:08:11.806Z,9.06
2018-03-19T12:10:40.236Z,8.88
2018-03-19T12:13:08.610Z,8.89
2018-03-19T12:15:37.041Z,9.06
2018-03-19T12:18:05.422Z,8.74
2018-03-19T12:20:33.812Z,8.58
2018-03-19T12:23:02.325Z,8.45
2018-03-19T12:25:30.813Z,8.46
2018-03-19T12:27:59.211Z,8.69
2018-03-19T12:30:27.592Z,8.39
2018-03-19T12:32:55.980Z,8.37
2018-03-19T12:35:24.317Z,7.78
2018-03-19T12:37:52.730Z,7.97
2018-03-19T12:40:21.084Z,8.07
2018-03-19T12:42:49.536Z,7.55
2018-03-19T12:45:17.957Z,7.40
2018-03-19T12:47:46.353Z,7.06
2018-03-19T12:50:14.797Z,6.80
2018-03-19T12:52:43.159Z,6.58
2018-03-19T12:55:11.618Z,6.66
2018-03-19T12:57:39.982Z,6.75
2018-03-19T13:00:08.379Z,6.60
2018-03-19T13:02:36.764Z,6.63
2018-03-19T13:05:05.199Z,6.52
2018-03-19T13:07:33.739Z,6.49
2018-03-19T13:10:02.120Z,6.35
2018-03-19T13:12:30.569Z,6.21
2018-03-19T13:14:59.017Z,6.23
2018-03-19T13:17:27.375Z,6.06
2018-03-19T13:19:55.769Z,6.03
2018-03-19T13:22:24.175Z,5.79
2018-03-19T13:24:52.588Z,5.80
2018-03-19T13:27:20.985Z,5.81
2018-03-19T13:29:49.362Z,5.97
2018-03-19T13:32:18.149Z,5.83
2018-03-19T13:34:46.531Z,5.84
2018-03-19T13:37:14.896Z,5.76
2018-03-19T13:39:43.305Z,5.70
2018-03-19T13:42:11.673Z,5.69
2018-03-19T13:44:40.028Z,5.62
2018-03-19T13:47:08.420Z,5.60
2018-03-19T13:49:36.773Z,5.78
2018-03-19T13:52:05.219Z,5.64
2018-03-19T13:54:33.652Z,5.52
2018-03-19T13:57:02.161Z,5.59
2018-03-19T13:59:30.572Z,5.62
2018-03-19T14:01:58.992Z,5.36
2018-03-19T14:04:27.348Z,5.28
2018-03-19T14:06:55.740Z,5.21
2018-03-19T14:09:24.112Z,5.10
2018-03-19T14:11:52.524Z,5.03
2018-03-19T14:14:20.972Z,5.07
2018-03-19T14:16:49.333Z,5.04
2018-03-19T14:19:17.745Z,5.16
2018-03-19T14:21:46.088Z,5.05
2018-03-19T14:24:14.491Z,4.91
2018-03-19T14:26:42.865Z,4.81
2018-03-19T14:29:11.256Z,4.90
2018-03-19T14:31:39.725Z,4.87
2018-03-19T14:34:08.207Z,4.65
2018-03-19T14:36:36.603Z,4.70
2018-03-19T14:39:05.320Z,4.62
2018-03-19T14:41:34.093Z,4.68
2018-03-19T14:44:02.485Z,4.69
2018-03-19T14:46:30.909Z,4.59
2018-03-19T14:48:59.269Z,4.57
2018-03-19T14:51:27.688Z,4.61
2018-03-19T14:53:56.175Z,4.66
2018-03-19T14:56:24.641Z,4.53
2018-03-19T14:58:53.008Z,4.66
2018-03-19T15:01:22.224Z,4.67
2018-03-19T15:03:52.348Z,4.57
2018-03-19T15:06:21.202Z,4.54
2018-03-19T15:08:49.624Z,4.44
2018-03-19T15:11:18.005Z,4.33
2018-03-19T15:13:46.413Z,4.15
2018-03-19T15:16:14.805Z,4.21
2018-03-19T15:18:43.212Z,4.12
2018-03-19T15:21:11.626Z,4.10
2018-03-19T15:23:40.049Z,4.00
2018-03-19T15:26:08.420Z,3.93
2018-03-19T15:28:36.920Z,4.01
2018-03-19T15:31:05.284Z,3.98
2018-03-19T15:33:33.668Z,3.82
2018-03-19T15:36:02.076Z,3.91
2018-03-19T15:38:30.458Z,3.84
2018-03-19T15:40:58.856Z,3.88
2018-03-19T15:43:27.316Z,3.86
2018-03-19T15:45:55.722Z,3.71
2018-03-19T15:48:24.172Z,3.74
2018-03-19T15:50:52.541Z,3.89
2018-03-19T15:53:21.076Z,3.82
2018-03-19T15:55:49.516Z,3.74
2018-03-19T15:58:17.897Z,3.69
2018-03-19T16:00:46.313Z,3.84
2018-03-19T16:03:14.764Z,3.69
2018-03-19T16:05:43.169Z,3.74
2018-03-19T16:08:11.696Z,3.94
2018-03-19T16:10:40.095Z,3.61
2018-03-19T16:13:08.512Z,3.69
2018-03-19T16:15:36.914Z,3.77
2018-03-19T16:18:05.320Z,3.82
2018-03-19T16:20:33.732Z,3.73
2018-03-19T16:23:02.132Z,3.67
2018-03-19T16:25:30.531Z,3.75
2018-03-19T16:27:58.925Z,3.85
2018-03-19T16:30:27.348Z,3.74
2018-03-19T16:32:55.880Z,3.83
2018-03-19T16:35:24.279Z,3.69
2018-03-19T16:37:52.636Z,3.62
2018-03-19T16:40:22.333Z,3.80
2018-03-19T16:42:50.720Z,3.62
2018-03-19T16:45:19.060Z,3.73
2018-03-19T16:47:47.462Z,3.63
2018-03-19T16:50:15.856Z,3.55
2018-03-19T16:52:44.225Z,3.52
2018-03-19T16:55:12.652Z,3.70
2018-03-19T16:57:41.086Z,3.64
2018-03-19T17:00:09.461Z,3.60
2018-03-19T17:02:37.857Z,3.52
2018-03-19T17:05:06.252Z,3.41
2018-03-19T17:07:34.685Z,3.39
2018-03-19T17:10:03.220Z,3.20
2018-03-19T17:12:31.637Z,3.33
2018-03-19T17:15:00.054Z,3.18
2018-03-19T17:17:28.494Z,3.24
2018-03-19T17:19:56.883Z,3.21
2018-03-19T17:22:25.311Z,3.17
2018-03-19T17:24:53.723Z,3.17
2018-03-19T17:27:22.079Z,3.05
2018-03-19T17:29:50.466Z,2.94
2018-03-19T17:32:18.843Z,2.84
2018-03-19T17:34:47.309Z,2.86
2018-03-19T17:37:15.728Z,2.83
2018-03-19T17:39:44.143Z,2.80
2018-03-19T17:42:12.624Z,2.79
2018-03-19T17:44:40.999Z,2.85
2018-03-19T17:47:09.368Z,2.81
2018-03-19T17:49:37.791Z,2.84
2018-03-19T17:52:06.167Z,2.74
2018-03-19T17:54:34.608Z,2.99
2018-03-19T17:57:03.054Z,2.93
2018-03-19T17:59:31.475Z,3.07
2018-03-19T18:01:59.905Z,3.04
2018-03-19T18:04:28.283Z,3.02
2018-03-19T18:06:56.711Z,2.97
2018-03-19T18:09:25.075Z,3.15
2018-03-19T18:11:53.490Z,3.01
2018-03-19T18:14:21.828Z,3.22
2018-03-19T18:16:50.233Z,3.27
2018-03-19T18:19:18.632Z,3.29
2018-03-19T18:21:47.013Z,3.20
2018-03-19T18:24:15.454Z,3.09
2018-03-19T18:26:43.817Z,3.12
2018-03-19T18:29:12.212Z,2.97
2018-03-19T18:31:40.625Z,3.03
2018-03-19T18:34:09.065Z,3.21
2018-03-19T18:36:37.473Z,3.09
2018-03-19T18:39:05.891Z,3.00
2018-03-19T18:41:34.264Z,2.97
2018-03-19T18:44:02.678Z,2.93
2018-03-19T18:46:31.153Z,2.89
2018-03-19T18:48:59.552Z,2.95
2018-03-19T18:51:27.928Z,2.89
2018-03-19T18:53:56.347Z,2.99
2018-03-19T18:56:24.763Z,2.94
2018-03-19T18:58:53.173Z,2.86
2018-03-19T19:01:21.536Z,3.04
2018-03-19T19:03:49.948Z,2.94
2018-03-19T19:06:18.348Z,3.01
2018-03-19T19:08:46.721Z,3.05
2018-03-19T19:11:15.155Z,2.83
2018-03-19T19:13:43.552Z,2.88
2018-03-19T19:16:11.925Z,2.90
2018-03-19T19:18:40.327Z,2.94
2018-03-19T19:21:08.743Z,3.03
2018-03-19T19:23:37.154Z,3.12
2018-03-19T19:26:05.590Z,2.89
2018-03-19T19:28:33.984Z,2.80
2018-03-19T19:31:02.449Z,3.03
2018-03-19T19:33:30.828Z,3.07
2018-03-19T19:35:59.616Z,3.04
2018-03-19T19:38:27.976Z,2.93
2018-03-19T19:40:56.369Z,2.92
2018-03-19T19:43:24.779Z,3.00
2018-03-19T19:45:53.136Z,2.98
2018-03-19T19:48:21.579Z,3.11
2018-03-19T19:50:49.956Z,3.27
2018-03-19T19:53:18.328Z,3.18
2018-03-19T19:55:46.764Z,3.11
2018-03-19T19:58:15.149Z,3.11
2018-03-19T20:00:43.616Z,3.20
2018-03-19T20:03:12.043Z,3.11
2018-03-19T20:05:40.488Z,3.24
2018-03-19T20:08:08.948Z,3.07
2018-03-19T20:10:37.353Z,3.11
2018-03-19T20:13:05.727Z,2.75
2018-03-19T20:15:34.068Z,2.76
2018-03-19T20:18:02.449Z,2.65
2018-03-19T20:20:30.865Z,2.69
2018-03-19T20:22:59.272Z,2.67
2018-03-19T20:25:27.680Z,2.50
2018-03-19T20:27:56.076Z,2.72
2018-03-19T20:30:24.480Z,2.52
2018-03-19T20:32:52.837Z,2.58
2018-03-19T20:35:21.228Z,2.66
2018-03-19T20:37:49.620Z,2.46
2018-03-19T20:40:17.995Z,2.61
2018-03-19T20:42:46.360Z,2.52
2018-03-19T20:45:14.760Z,2.53
2018-03-19T20:47:43.136Z,2.53
2018-03-19T20:50:11.640Z,2.43
2018-03-19T20:52:40.028Z,2.43
2018-03-19T20:55:08.453Z,2.55
2018-03-19T20:57:36.838Z,2.45
2018-03-19T21:00:05.272Z,2.49
2018-03-19T21:02:33.788Z,2.03
2018-03-19T21:05:02.525Z,2.34
2018-03-19T21:07:30.903Z,2.42
2018-03-19T21:09:59.289Z,2.29
2018-03-19T21:12:27.699Z,2.21
2018-03-19T21:14:56.073Z,2.59
2018-03-19T21:17:24.428Z,2.55
2018-03-19T21:19:52.895Z,2.42
2018-03-19T21:22:21.287Z,2.51
2018-03-19T21:24:49.648Z,2.59
2018-03-19T21:27:18.061Z,2.53
2018-03-19T21:29:46.404Z,2.63
2018-03-19T21:32:14.765Z,2.67
2018-03-19T21:34:43.212Z,2.71
2018-03-19T21:37:11.561Z,2.72
2018-03-19T21:39:39.937Z,2.68
2018-03-19T21:42:08.360Z,2.76
2018-03-19T21:44:36.713Z,2.69
2018-03-19T21:47:05.268Z,2.54
2018-03-19T21:49:33.686Z,2.73
2018-03-19T21:52:02.045Z,2.63
2018-03-19T21:54:30.444Z,2.72
2018-03-19T21:56:58.852Z,2.65
2018-03-19T21:59:27.245Z,2.66
2018-03-19T22:01:55.629Z,2.68
2018-03-19T22:04:23.984Z,2.98
2018-03-19T22:06:52.384Z,2.89
2018-03-19T22:09:20.817Z,2.69
2018-03-19T22:11:49.169Z,2.74
2018-03-19T22:14:17.580Z,2.94
2018-03-19T22:16:45.960Z,2.99
2018-03-19T22:19:14.364Z,3.08
2018-03-19T22:21:42.748Z,3.03
2018-03-19T22:24:11.110Z,3.14
2018-03-19T22:26:39.529Z,2.93
2018-03-19T22:29:07.901Z,2.95
2018-03-19T22:31:36.301Z,2.98
2018-03-19T22:34:04.684Z,2.96
2018-03-19T22:36:33.164Z,2.93
2018-03-19T22:39:01.625Z,2.82
2018-03-19T22:41:30.088Z,2.85
2018-03-19T22:43:58.504Z,2.72
2018-03-19T22:46:26.866Z,2.78
2018-03-19T22:48:55.240Z,2.76
2018-03-19T22:51:23.637Z,2.93
2018-03-19T22:53:52.025Z,2.89
2018-03-19T22:56:20.385Z,2.93
2018-03-19T22:58:48.797Z,3.05
2018-03-19T23:01:17.151Z,3.05
2018-03-19T23:03:45.541Z,2.85
2018-03-19T23:06:13.920Z,2.94
2018-03-19T23:08:42.391Z,2.78
2018-03-19T23:11:10.762Z,2.61
2018-03-19T23:13:39.168Z,2.46
2018-03-19T23:16:07.558Z,2.52
2018-03-19T23:18:35.932Z,2.56
2018-03-19T23:21:04.321Z,2.65
2018-03-19T23:23:32.702Z,2.57
2018-03-19T23:26:01.097Z,2.65
2018-03-19T23:28:29.660Z,2.57
2018-03-19T23:30:58.060Z,2.78
2018-03-19T23:33:26.480Z,2.64
2018-03-19T23:35:54.899Z,2.16
2018-03-19T23:38:23.297Z,1.68
2018-03-19T23:40:51.729Z,1.70
2018-03-19T23:43:20.093Z,1.97
2018-03-19T23:45:48.772Z,2.07
2018-03-19T23:48:17.244Z,2.01
2018-03-19T23:50:45.659Z,1.96
2018-03-19T23:53:14.032Z,2.04
2018-03-19T23:55:42.477Z,2.12
2018-03-19T23:58:10.833Z,2.10
